Lawson Army Air Field (Fort Benning) Fort Benning(Columbus) US
ICAO: KLSF
IATA: LSF
Category: Medium
Scheduled Services: No

Elevation: 232 ft
TransAlt. 18000 ft.

Airport Communications:
ATLANTA APP/DEP:125.5
ATIS:134.375
CLNC DEL:121.7
GND:121.05
PMSV METRO:34.32
PTD/BASE OPS:134.1
TWR:119.05

KLSF Zoom In..

If you have problems with the map follow the link
https://www.worldairports.se/pages/airport.php?
ICAO=KLSF

Runways:

(A) RW 15 length 10004 ft width 150 ft
---- / hdg 147

(B) RW 33 length 10004 ft width 150 ft
ILS 110.70 / hdg 327

Location; KLSF
Day. 19 / Time. 14.56 Zulu
* Altimeter: 30.21
* Temperature: 08° c. 46.4°f.
* Wind from: 300° Speed 12 kn.
Dewpoint: -01° c.
Visibility: 10 Statute Miles.
Clouds: Scattered 9500 ft.

KLSF 191456Z AUTO 30012KT 10SM SCT095 08/M01 A3021 RMK AO2 SLP235 60000 T00811014 52035 $


Wind From 300°
Speed 12 kn.

 
 
jpsmedia worldairports.se 2020   terms of use